sensor_id;sensor_type;location;lat;lon;timestamp;temperature;humidity
67868;SHT31;54672;46.096;14.470;2022-11-10T00:00:01;12.70;98.42
67868;SHT31;54672;46.096;14.470;2022-11-10T00:02:27;12.67;98.46
67868;SHT31;54672;46.096;14.470;2022-11-10T00:04:53;12.72;98.33
67868;SHT31;54672;46.096;14.470;2022-11-10T00:07:18;12.63;98.62
67868;SHT31;54672;46.096;14.470;2022-11-10T00:09:43;12.56;99.01
67868;SHT31;54672;46.096;14.470;2022-11-10T00:12:09;12.46;99.43
67868;SHT31;54672;46.096;14.470;2022-11-10T00:14:34;12.42;99.76
67868;SHT31;54672;46.096;14.470;2022-11-10T00:17:18;12.35;99.97
67868;SHT31;54672;46.096;14.470;2022-11-10T00:19:44;12.38;99.99
67868;SHT31;54672;46.096;14.470;2022-11-10T00:22:09;12.41;99.79
67868;SHT31;54672;46.096;14.470;2022-11-10T00:24:35;12.45;99.65
67868;SHT31;54672;46.096;14.470;2022-11-10T00:27:00;12.45;99.66
67868;SHT31;54672;46.096;14.470;2022-11-10T00:29:26;12.41;99.58
67868;SHT31;54672;46.096;14.470;2022-11-10T00:31:52;12.25;99.99
67868;SHT31;54672;46.096;14.470;2022-11-10T00:34:17;12.21;99.99
67868;SHT31;54672;46.096;14.470;2022-11-10T00:36:43;12.08;99.99
67868;SHT31;54672;46.096;14.470;2022-11-10T00:39:09;11.99;99.99
67868;SHT31;54672;46.096;14.470;2022-11-10T00:41:34;12.04;99.99
67868;SHT31;54672;46.096;14.470;2022-11-10T00:44:00;12.14;99.99
67868;SHT31;54672;46.096;14.470;2022-11-10T00:46:25;12.18;99.99
67868;SHT31;54672;46.096;14.470;2022-11-10T00:48:51;12.24;99.99
67868;SHT31;54672;46.096;14.470;2022-11-10T00:51:20;12.22;99.99
67868;SHT31;54672;46.096;14.470;2022-11-10T00:53:46;12.25;99.99
67868;SHT31;54672;46.096;14.470;2022-11-10T00:56:12;12.31;99.99
67868;SHT31;54672;46.096;14.470;2022-11-10T00:58:37;12.36;99.99
67868;SHT31;54672;46.096;14.470;2022-11-10T01:01:04;12.44;99.99
67868;SHT31;54672;46.096;14.470;2022-11-10T01:03:29;12.46;99.69
67868;SHT31;54672;46.096;14.470;2022-11-10T01:05:55;12.28;99.78
67868;SHT31;54672;46.096;14.470;2022-11-10T01:08:20;12.31;99.80
67868;SHT31;54672;46.096;14.470;2022-11-10T01:10:46;12.36;99.49
67868;SHT31;54672;46.096;14.470;2022-11-10T01:13:12;12.34;99.56
67868;SHT31;54672;46.096;14.470;2022-11-10T01:15:38;12.34;99.65
67868;SHT31;54672;46.096;14.470;2022-11-10T01:18:04;12.36;99.72
67868;SHT31;54672;46.096;14.470;2022-11-10T01:20:30;12.36;99.81
67868;SHT31;54672;46.096;14.470;2022-11-10T01:22:56;12.41;99.83
67868;SHT31;54672;46.096;14.470;2022-11-10T01:25:22;12.45;99.74
67868;SHT31;54672;46.096;14.470;2022-11-10T01:27:47;12.50;99.73
67868;SHT31;54672;46.096;14.470;2022-11-10T01:30:13;12.49;99.68
67868;SHT31;54672;46.096;14.470;2022-11-10T01:32:38;12.53;99.61
67868;SHT31;54672;46.096;14.470;2022-11-10T01:35:04;12.55;99.48
67868;SHT31;54672;46.096;14.470;2022-11-10T01:37:30;12.56;99.42
67868;SHT31;54672;46.096;14.470;2022-11-10T01:39:55;12.59;99.35
67868;SHT31;54672;46.096;14.470;2022-11-10T01:42:27;12.63;99.18
67868;SHT31;54672;46.096;14.470;2022-11-10T01:47:46;12.66;98.74
67868;SHT31;54672;46.096;14.470;2022-11-10T01:50:12;12.62;98.59
67868;SHT31;54672;46.096;14.470;2022-11-10T01:52:38;12.65;98.57
67868;SHT31;54672;46.096;14.470;2022-11-10T01:55:04;12.65;98.57
67868;SHT31;54672;46.096;14.470;2022-11-10T01:57:30;12.65;98.48
67868;SHT31;54672;46.096;14.470;2022-11-10T01:59:56;12.66;98.46
67868;SHT31;54672;46.096;14.470;2022-11-10T02:02:28;12.70;98.26
67868;SHT31;54672;46.096;14.470;2022-11-10T02:04:55;12.70;97.93
67868;SHT31;54672;46.096;14.470;2022-11-10T02:07:21;12.70;97.65
67868;SHT31;54672;46.096;14.470;2022-11-10T02:09:47;12.75;97.47
67868;SHT31;54672;46.096;14.470;2022-11-10T02:12:13;12.77;97.19
67868;SHT31;54672;46.096;14.470;2022-11-10T02:14:39;12.77;97.41
67868;SHT31;54672;46.096;14.470;2022-11-10T02:17:04;12.77;97.38
67868;SHT31;54672;46.096;14.470;2022-11-10T02:19:39;12.82;97.09
67868;SHT31;54672;46.096;14.470;2022-11-10T02:22:04;12.72;97.76
67868;SHT31;54672;46.096;14.470;2022-11-10T02:24:30;12.57;97.98
67868;SHT31;54672;46.096;14.470;2022-11-10T02:26:56;12.53;98.21
67868;SHT31;54672;46.096;14.470;2022-11-10T02:29:22;12.55;98.31
67868;SHT31;54672;46.096;14.470;2022-11-10T02:31:48;12.48;98.48
67868;SHT31;54672;46.096;14.470;2022-11-10T02:34:14;12.49;98.09
67868;SHT31;54672;46.096;14.470;2022-11-10T02:36:40;12.46;98.64
67868;SHT31;54672;46.096;14.470;2022-11-10T02:39:05;12.48;98.67
67868;SHT31;54672;46.096;14.470;2022-11-10T02:41:31;12.49;97.82
67868;SHT31;54672;46.096;14.470;2022-11-10T02:43:56;12.50;98.32
67868;SHT31;54672;46.096;14.470;2022-11-10T02:46:22;12.49;97.94
67868;SHT31;54672;46.096;14.470;2022-11-10T02:48:48;12.55;97.63
67868;SHT31;54672;46.096;14.470;2022-11-10T02:51:13;12.57;97.54
67868;SHT31;54672;46.096;14.470;2022-11-10T02:53:39;12.57;97.65
67868;SHT31;54672;46.096;14.470;2022-11-10T02:56:05;12.63;96.60
67868;SHT31;54672;46.096;14.470;2022-11-10T02:58:30;12.63;97.14
67868;SHT31;54672;46.096;14.470;2022-11-10T03:00:55;12.62;97.30
67868;SHT31;54672;46.096;14.470;2022-11-10T03:03:21;12.75;96.25
67868;SHT31;54672;46.096;14.470;2022-11-10T03:05:46;12.76;96.73
67868;SHT31;54672;46.096;14.470;2022-11-10T03:08:12;12.82;95.54
67868;SHT31;54672;46.096;14.470;2022-11-10T03:10:37;12.97;94.01
67868;SHT31;54672;46.096;14.470;2022-11-10T03:13:03;13.03;94.27
67868;SHT31;54672;46.096;14.470;2022-11-10T03:15:28;13.03;94.21
67868;SHT31;54672;46.096;14.470;2022-11-10T03:17:54;13.06;93.89
67868;SHT31;54672;46.096;14.470;2022-11-10T03:20:19;13.10;93.35
67868;SHT31;54672;46.096;14.470;2022-11-10T03:22:45;13.14;93.02
67868;SHT31;54672;46.096;14.470;2022-11-10T03:25:11;13.15;93.54
67868;SHT31;54672;46.096;14.470;2022-11-10T03:27:36;13.17;93.39
67868;SHT31;54672;46.096;14.470;2022-11-10T03:30:03;13.17;93.59
67868;SHT31;54672;46.096;14.470;2022-11-10T03:32:29;13.15;93.90
67868;SHT31;54672;46.096;14.470;2022-11-10T03:34:54;13.11;94.15
67868;SHT31;54672;46.096;14.470;2022-11-10T03:37:20;13.06;94.74
67868;SHT31;54672;46.096;14.470;2022-11-10T03:39:46;13.04;94.91
67868;SHT31;54672;46.096;14.470;2022-11-10T03:42:11;12.94;95.56
67868;SHT31;54672;46.096;14.470;2022-11-10T03:44:36;12.90;95.48
67868;SHT31;54672;46.096;14.470;2022-11-10T03:47:02;12.86;95.91
67868;SHT31;54672;46.096;14.470;2022-11-10T03:49:28;12.92;95.59
67868;SHT31;54672;46.096;14.470;2022-11-10T03:51:54;12.90;95.70
67868;SHT31;54672;46.096;14.470;2022-11-10T03:54:20;12.86;95.92
67868;SHT31;54672;46.096;14.470;2022-11-10T03:56:45;12.92;95.45
67868;SHT31;54672;46.096;14.470;2022-11-10T03:59:11;12.97;95.19
67868;SHT31;54672;46.096;14.470;2022-11-10T04:01:36;13.03;94.60
67868;SHT31;54672;46.096;14.470;2022-11-10T04:04:02;13.03;94.54
67868;SHT31;54672;46.096;14.470;2022-11-10T04:06:27;13.10;94.17
67868;SHT31;54672;46.096;14.470;2022-11-10T04:09:11;13.13;94.09
67868;SHT31;54672;46.096;14.470;2022-11-10T04:11:36;13.13;94.00
67868;SHT31;54672;46.096;14.470;2022-11-10T04:14:20;13.15;93.86
67868;SHT31;54672;46.096;14.470;2022-11-10T04:17:04;13.08;94.18
67868;SHT31;54672;46.096;14.470;2022-11-10T04:19:30;13.10;94.50
67868;SHT31;54672;46.096;14.470;2022-11-10T04:21:56;13.04;94.77
67868;SHT31;54672;46.096;14.470;2022-11-10T04:24:21;13.04;94.54
67868;SHT31;54672;46.096;14.470;2022-11-10T04:26:47;13.02;94.76
67868;SHT31;54672;46.096;14.470;2022-11-10T04:29:16;12.86;96.00
67868;SHT31;54672;46.096;14.470;2022-11-10T04:31:41;12.72;97.00
67868;SHT31;54672;46.096;14.470;2022-11-10T04:34:10;12.67;97.03
67868;SHT31;54672;46.096;14.470;2022-11-10T04:36:37;12.70;96.99
67868;SHT31;54672;46.096;14.470;2022-11-10T04:39:04;12.70;97.22
67868;SHT31;54672;46.096;14.470;2022-11-10T04:41:30;12.67;97.48
67868;SHT31;54672;46.096;14.470;2022-11-10T04:43:57;12.52;98.41
67868;SHT31;54672;46.096;14.470;2022-11-10T04:46:33;12.52;98.43
67868;SHT31;54672;46.096;14.470;2022-11-10T04:48:59;12.57;98.37
67868;SHT31;54672;46.096;14.470;2022-11-10T04:51:30;12.60;98.29
67868;SHT31;54672;46.096;14.470;2022-11-10T04:53:56;12.59;98.25
67868;SHT31;54672;46.096;14.470;2022-11-10T04:56:23;12.57;98.41
67868;SHT31;54672;46.096;14.470;2022-11-10T04:58:49;12.59;98.30
67868;SHT31;54672;46.096;14.470;2022-11-10T05:01:18;12.63;98.27
67868;SHT31;54672;46.096;14.470;2022-11-10T05:03:44;12.66;98.18
67868;SHT31;54672;46.096;14.470;2022-11-10T05:06:10;12.59;98.32
67868;SHT31;54672;46.096;14.470;2022-11-10T05:08:37;12.62;98.43
67868;SHT31;54672;46.096;14.470;2022-11-10T05:11:03;12.57;98.56
67868;SHT31;54672;46.096;14.470;2022-11-10T05:13:28;12.57;98.45
67868;SHT31;54672;46.096;14.470;2022-11-10T05:15:55;12.55;98.50
67868;SHT31;54672;46.096;14.470;2022-11-10T05:18:20;12.52;98.71
67868;SHT31;54672;46.096;14.470;2022-11-10T05:20:46;12.56;98.59
67868;SHT31;54672;46.096;14.470;2022-11-10T05:23:11;12.57;98.54
67868;SHT31;54672;46.096;14.470;2022-11-10T05:25:55;12.55;98.61
67868;SHT31;54672;46.096;14.470;2022-11-10T05:28:21;12.57;98.59
67868;SHT31;54672;46.096;14.470;2022-11-10T05:30:46;12.59;98.68
67868;SHT31;54672;46.096;14.470;2022-11-10T05:33:12;12.60;98.83
67868;SHT31;54672;46.096;14.470;2022-11-10T05:35:37;12.60;98.77
67868;SHT31;54672;46.096;14.470;2022-11-10T05:38:03;12.59;98.73
67868;SHT31;54672;46.096;14.470;2022-11-10T05:40:30;12.62;98.71
67868;SHT31;54672;46.096;14.470;2022-11-10T05:42:55;12.60;98.80
67868;SHT31;54672;46.096;14.470;2022-11-10T05:45:23;12.57;99.10
67868;SHT31;54672;46.096;14.470;2022-11-10T05:47:50;12.44;99.53
67868;SHT31;54672;46.096;14.470;2022-11-10T05:50:16;12.34;99.99
67868;SHT31;54672;46.096;14.470;2022-11-10T05:52:44;12.36;99.99
67868;SHT31;54672;46.096;14.470;2022-11-10T05:55:10;12.35;99.99
67868;SHT31;54672;46.096;14.470;2022-11-10T05:57:35;12.35;99.99
67868;SHT31;54672;46.096;14.470;2022-11-10T06:00:03;12.31;99.99
67868;SHT31;54672;46.096;14.470;2022-11-10T06:02:28;12.22;99.99
67868;SHT31;54672;46.096;14.470;2022-11-10T06:04:54;12.21;99.99
67868;SHT31;54672;46.096;14.470;2022-11-10T06:07:19;12.24;99.99
67868;SHT31;54672;46.096;14.470;2022-11-10T06:09:45;12.22;99.99
67868;SHT31;54672;46.096;14.470;2022-11-10T06:12:12;12.21;99.99
67868;SHT31;54672;46.096;14.470;2022-11-10T06:14:38;12.20;99.99
67868;SHT31;54672;46.096;14.470;2022-11-10T06:17:03;12.17;99.99
67868;SHT31;54672;46.096;14.470;2022-11-10T06:19:29;12.21;99.99
67868;SHT31;54672;46.096;14.470;2022-11-10T06:21:54;12.21;99.99
67868;SHT31;54672;46.096;14.470;2022-11-10T06:24:19;12.26;99.99
67868;SHT31;54672;46.096;14.470;2022-11-10T06:26:45;12.28;99.99
67868;SHT31;54672;46.096;14.470;2022-11-10T06:29:10;12.26;99.99
67868;SHT31;54672;46.096;14.470;2022-11-10T06:31:35;12.28;99.99
67868;SHT31;54672;46.096;14.470;2022-11-10T06:34:02;12.26;99.99
67868;SHT31;54672;46.096;14.470;2022-11-10T06:36:27;12.24;99.99
67868;SHT31;54672;46.096;14.470;2022-11-10T06:38:52;12.22;99.99
67868;SHT31;54672;46.096;14.470;2022-11-10T06:41:18;12.29;99.99
67868;SHT31;54672;46.096;14.470;2022-11-10T06:43:43;12.29;99.99
67868;SHT31;54672;46.096;14.470;2022-11-10T06:46:09;12.26;99.99
67868;SHT31;54672;46.096;14.470;2022-11-10T06:48:34;12.25;99.99
67868;SHT31;54672;46.096;14.470;2022-11-10T06:51:00;12.21;99.99
67868;SHT31;54672;46.096;14.470;2022-11-10T06:53:26;12.25;99.99
67868;SHT31;54672;46.096;14.470;2022-11-10T06:55:51;12.24;99.99
67868;SHT31;54672;46.096;14.470;2022-11-10T06:58:17;12.21;99.98
67868;SHT31;54672;46.096;14.470;2022-11-10T07:00:42;12.25;99.99
67868;SHT31;54672;46.096;14.470;2022-11-10T07:03:11;12.26;99.99
67868;SHT31;54672;46.096;14.470;2022-11-10T07:05:37;12.24;99.91
67868;SHT31;54672;46.096;14.470;2022-11-10T07:08:04;12.24;99.99
67868;SHT31;54672;46.096;14.470;2022-11-10T07:10:31;12.22;99.99
67868;SHT31;54672;46.096;14.470;2022-11-10T07:12:57;12.22;99.99
67868;SHT31;54672;46.096;14.470;2022-11-10T07:15:23;12.18;99.98
67868;SHT31;54672;46.096;14.470;2022-11-10T07:17:48;12.22;99.98
67868;SHT31;54672;46.096;14.470;2022-11-10T07:20:14;12.18;99.84
67868;SHT31;54672;46.096;14.470;2022-11-10T07:22:40;12.21;99.93
67868;SHT31;54672;46.096;14.470;2022-11-10T07:25:05;12.17;99.99
67868;SHT31;54672;46.096;14.470;2022-11-10T07:27:31;12.11;99.99
67868;SHT31;54672;46.096;14.470;2022-11-10T07:29:56;12.15;99.99
67868;SHT31;54672;46.096;14.470;2022-11-10T07:32:22;12.05;99.99
67868;SHT31;54672;46.096;14.470;2022-11-10T07:34:47;12.05;99.99
67868;SHT31;54672;46.096;14.470;2022-11-10T07:37:12;12.05;99.99
67868;SHT31;54672;46.096;14.470;2022-11-10T07:39:38;12.04;99.99
67868;SHT31;54672;46.096;14.470;2022-11-10T07:42:03;12.07;99.99
67868;SHT31;54672;46.096;14.470;2022-11-10T07:44:28;12.10;99.99
67868;SHT31;54672;46.096;14.470;2022-11-10T07:46:54;12.11;99.99
67868;SHT31;54672;46.096;14.470;2022-11-10T07:49:20;12.15;99.99
67868;SHT31;54672;46.096;14.470;2022-11-10T07:51:45;12.10;99.99
67868;SHT31;54672;46.096;14.470;2022-11-10T07:54:10;11.94;99.99
67868;SHT31;54672;46.096;14.470;2022-11-10T07:56:36;11.95;99.99
67868;SHT31;54672;46.096;14.470;2022-11-10T07:59:01;11.98;99.96
67868;SHT31;54672;46.096;14.470;2022-11-10T08:01:27;12.07;99.90
67868;SHT31;54672;46.096;14.470;2022-11-10T08:03:52;12.07;99.24
67868;SHT31;54672;46.096;14.470;2022-11-10T08:06:18;12.02;98.78
67868;SHT31;54672;46.096;14.470;2022-11-10T08:08:45;11.97;98.42
67868;SHT31;54672;46.096;14.470;2022-11-10T08:11:11;11.95;97.84
67868;SHT31;54672;46.096;14.470;2022-11-10T08:13:36;11.95;97.35
67868;SHT31;54672;46.096;14.470;2022-11-10T08:16:03;11.97;99.32
67868;SHT31;54672;46.096;14.470;2022-11-10T08:18:29;11.90;99.27
67868;SHT31;54672;46.096;14.470;2022-11-10T08:20:54;11.95;99.89
67868;SHT31;54672;46.096;14.470;2022-11-10T08:23:20;11.88;99.99
67868;SHT31;54672;46.096;14.470;2022-11-10T08:25:45;11.90;99.89
67868;SHT31;54672;46.096;14.470;2022-11-10T08:28:16;11.93;99.99
67868;SHT31;54672;46.096;14.470;2022-11-10T08:30:43;11.91;99.99
67868;SHT31;54672;46.096;14.470;2022-11-10T08:33:11;11.98;99.99
67868;SHT31;54672;46.096;14.470;2022-11-10T08:35:39;12.01;99.99
67868;SHT31;54672;46.096;14.470;2022-11-10T08:38:12;12.07;99.99
67868;SHT31;54672;46.096;14.470;2022-11-10T08:40:39;12.04;99.99
67868;SHT31;54672;46.096;14.470;2022-11-10T08:43:05;12.05;99.99
67868;SHT31;54672;46.096;14.470;2022-11-10T08:45:33;12.11;99.99
67868;SHT31;54672;46.096;14.470;2022-11-10T08:48:04;12.01;99.99
67868;SHT31;54672;46.096;14.470;2022-11-10T08:50:30;11.97;99.99
67868;SHT31;54672;46.096;14.470;2022-11-10T08:52:59;11.91;99.99
67868;SHT31;54672;46.096;14.470;2022-11-10T08:55:25;11.95;99.99
67868;SHT31;54672;46.096;14.470;2022-11-10T08:57:50;11.97;99.91
67868;SHT31;54672;46.096;14.470;2022-11-10T09:00:18;12.01;99.80
67868;SHT31;54672;46.096;14.470;2022-11-10T09:02:44;12.04;99.91
67868;SHT31;54672;46.096;14.470;2022-11-10T09:05:09;12.13;99.99
67868;SHT31;54672;46.096;14.470;2022-11-10T09:07:42;12.11;99.81
67868;SHT31;54672;46.096;14.470;2022-11-10T09:10:09;12.10;99.49
67868;SHT31;54672;46.096;14.470;2022-11-10T09:12:35;12.13;99.13
67868;SHT31;54672;46.096;14.470;2022-11-10T09:15:01;12.18;99.31
67868;SHT31;54672;46.096;14.470;2022-11-10T09:17:26;12.14;99.05
67868;SHT31;54672;46.096;14.470;2022-11-10T09:19:52;12.14;98.86
67868;SHT31;54672;46.096;14.470;2022-11-10T09:22:18;12.11;99.25
67868;SHT31;54672;46.096;14.470;2022-11-10T09:24:43;12.18;98.94
67868;SHT31;54672;46.096;14.470;2022-11-10T09:27:08;12.11;98.45
67868;SHT31;54672;46.096;14.470;2022-11-10T09:29:34;12.11;98.61
67868;SHT31;54672;46.096;14.470;2022-11-10T09:31:59;12.07;98.01
67868;SHT31;54672;46.096;14.470;2022-11-10T09:34:25;12.05;97.22
67868;SHT31;54672;46.096;14.470;2022-11-10T09:36:50;12.14;97.51
67868;SHT31;54672;46.096;14.470;2022-11-10T09:39:15;12.10;97.60
67868;SHT31;54672;46.096;14.470;2022-11-10T09:41:43;12.14;97.92
67868;SHT31;54672;46.096;14.470;2022-11-10T09:44:30;12.14;97.86
67868;SHT31;54672;46.096;14.470;2022-11-10T09:46:59;12.17;97.61
67868;SHT31;54672;46.096;14.470;2022-11-10T09:49:38;12.17;98.26
67868;SHT31;54672;46.096;14.470;2022-11-10T09:52:05;12.24;98.28
67868;SHT31;54672;46.096;14.470;2022-11-10T09:54:39;12.24;98.21
67868;SHT31;54672;46.096;14.470;2022-11-10T09:57:09;12.25;97.98
67868;SHT31;54672;46.096;14.470;2022-11-10T09:59:35;12.29;98.16
67868;SHT31;54672;46.096;14.470;2022-11-10T10:02:37;12.29;97.90
67868;SHT31;54672;46.096;14.470;2022-11-10T10:08:06;12.22;98.00
67868;SHT31;54672;46.096;14.470;2022-11-10T10:16:18;12.10;98.46
67868;SHT31;54672;46.096;14.470;2022-11-10T10:21:48;11.97;97.15
67868;SHT31;54672;46.096;14.470;2022-11-10T10:24:16;11.95;97.92
67868;SHT31;54672;46.096;14.470;2022-11-10T10:26:53;11.90;98.10
67868;SHT31;54672;46.096;14.470;2022-11-10T10:29:22;11.93;98.57
67868;SHT31;54672;46.096;14.470;2022-11-10T10:31:49;11.87;98.37
67868;SHT31;54672;46.096;14.470;2022-11-10T10:34:17;11.93;98.98
67868;SHT31;54672;46.096;14.470;2022-11-10T10:36:44;11.97;98.39
67868;SHT31;54672;46.096;14.470;2022-11-10T10:39:15;11.95;98.42
67868;SHT31;54672;46.096;14.470;2022-11-10T10:41:44;11.97;98.04
67868;SHT31;54672;46.096;14.470;2022-11-10T10:44:15;11.94;97.62
67868;SHT31;54672;46.096;14.470;2022-11-10T10:46:56;11.90;97.15
67868;SHT31;54672;46.096;14.470;2022-11-10T10:51:49;11.83;97.04
67868;SHT31;54672;46.096;14.470;2022-11-10T10:54:30;11.84;96.96
67868;SHT31;54672;46.096;14.470;2022-11-10T10:57:23;11.85;97.38
67868;SHT31;54672;46.096;14.470;2022-11-10T10:59:48;11.84;97.44
67868;SHT31;54672;46.096;14.470;2022-11-10T11:02:28;11.88;97.05
67868;SHT31;54672;46.096;14.470;2022-11-10T11:05:14;11.81;97.10
67868;SHT31;54672;46.096;14.470;2022-11-10T11:07:56;11.88;97.09
67868;SHT31;54672;46.096;14.470;2022-11-10T11:10:25;11.80;97.42
67868;SHT31;54672;46.096;14.470;2022-11-10T11:12:51;11.80;96.63
67868;SHT31;54672;46.096;14.470;2022-11-10T11:15:27;11.84;97.10
67868;SHT31;54672;46.096;14.470;2022-11-10T11:17:58;11.88;97.53
67868;SHT31;54672;46.096;14.470;2022-11-10T11:25:47;11.88;97.65
67868;SHT31;54672;46.096;14.470;2022-11-10T11:31:35;11.69;96.83
67868;SHT31;54672;46.096;14.470;2022-11-10T11:42:13;11.76;97.32
67868;SHT31;54672;46.096;14.470;2022-11-10T11:57:41;12.07;97.36
67868;SHT31;54672;46.096;14.470;2022-11-10T12:00:12;12.24;97.55
67868;SHT31;54672;46.096;14.470;2022-11-10T12:05:30;12.24;97.15
67868;SHT31;54672;46.096;14.470;2022-11-10T12:10:59;12.41;97.05
67868;SHT31;54672;46.096;14.470;2022-11-10T12:16:28;12.62;96.09
67868;SHT31;54672;46.096;14.470;2022-11-10T12:22:12;12.77;94.67
67868;SHT31;54672;46.096;14.470;2022-11-10T12:27:44;12.82;94.97
67868;SHT31;54672;46.096;14.470;2022-11-10T12:30:14;12.83;94.70
67868;SHT31;54672;46.096;14.470;2022-11-10T12:32:47;12.79;93.38
67868;SHT31;54672;46.096;14.470;2022-11-10T12:35:19;12.73;93.96
67868;SHT31;54672;46.096;14.470;2022-11-10T12:37:51;12.65;94.83
67868;SHT31;54672;46.096;14.470;2022-11-10T12:40:27;12.41;92.98
67868;SHT31;54672;46.096;14.470;2022-11-10T12:43:05;12.31;93.27
67868;SHT31;54672;46.096;14.470;2022-11-10T12:45:44;12.35;93.07
67868;SHT31;54672;46.096;14.470;2022-11-10T12:48:12;12.41;93.61
67868;SHT31;54672;46.096;14.470;2022-11-10T12:53:29;12.50;95.18
67868;SHT31;54672;46.096;14.470;2022-11-10T12:56:29;12.53;96.11
67868;SHT31;54672;46.096;14.470;2022-11-10T12:59:23;12.56;96.20
67868;SHT31;54672;46.096;14.470;2022-11-10T13:01:57;12.59;96.29
67868;SHT31;54672;46.096;14.470;2022-11-10T13:04:23;12.60;96.38
67868;SHT31;54672;46.096;14.470;2022-11-10T13:07:11;12.57;96.47
67868;SHT31;54672;46.096;14.470;2022-11-10T13:09:40;12.52;96.56
67868;SHT31;54672;46.096;14.470;2022-11-10T13:14:36;12.52;97.00
67868;SHT31;54672;46.096;14.470;2022-11-10T13:17:03;12.50;96.91
67868;SHT31;54672;46.096;14.470;2022-11-10T13:24:33;12.50;97.20
67868;SHT31;54672;46.096;14.470;2022-11-10T13:34:46;12.48;97.40
67868;SHT31;54672;46.096;14.470;2022-11-10T13:45:42;12.48;96.74
67868;SHT31;54672;46.096;14.470;2022-11-10T13:51:06;12.44;97.20
67868;SHT31;54672;46.096;14.470;2022-11-10T13:54:18;12.39;97.38
67868;SHT31;54672;46.096;14.470;2022-11-10T13:57:09;12.29;97.30
67868;SHT31;54672;46.096;14.470;2022-11-10T14:05:05;12.32;96.52
67868;SHT31;54672;46.096;14.470;2022-11-10T14:07:37;12.24;96.83
67868;SHT31;54672;46.096;14.470;2022-11-10T14:13:16;12.26;95.88
67868;SHT31;54672;46.096;14.470;2022-11-10T14:15:46;12.18;96.15
67868;SHT31;54672;46.096;14.470;2022-11-10T14:18:25;12.15;96.36
67868;SHT31;54672;46.096;14.470;2022-11-10T14:20:57;12.13;96.25
67868;SHT31;54672;46.096;14.470;2022-11-10T14:23:50;12.05;96.32
67868;SHT31;54672;46.096;14.470;2022-11-10T14:26:28;12.04;96.34
67868;SHT31;54672;46.096;14.470;2022-11-10T14:28:54;12.02;96.54
67868;SHT31;54672;46.096;14.470;2022-11-10T14:31:22;12.10;96.52
67868;SHT31;54672;46.096;14.470;2022-11-10T14:33:53;12.04;95.66
67868;SHT31;54672;46.096;14.470;2022-11-10T14:36:18;12.05;95.48
67868;SHT31;54672;46.096;14.470;2022-11-10T14:38:44;11.97;96.21
67868;SHT31;54672;46.096;14.470;2022-11-10T14:41:16;11.97;96.42
67868;SHT31;54672;46.096;14.470;2022-11-10T14:43:42;11.91;96.69
67868;SHT31;54672;46.096;14.470;2022-11-10T14:46:12;11.84;97.01
67868;SHT31;54672;46.096;14.470;2022-11-10T14:48:39;11.84;97.45
67868;SHT31;54672;46.096;14.470;2022-11-10T14:53:34;11.80;97.56
67868;SHT31;54672;46.096;14.470;2022-11-10T14:56:02;11.76;97.35
67868;SHT31;54672;46.096;14.470;2022-11-10T14:58:36;11.62;98.96
67868;SHT31;54672;46.096;14.470;2022-11-10T15:01:04;11.53;99.38
67868;SHT31;54672;46.096;14.470;2022-11-10T15:03:37;11.47;99.93
67868;SHT31;54672;46.096;14.470;2022-11-10T15:06:07;11.50;99.99
67868;SHT31;54672;46.096;14.470;2022-11-10T15:08:33;11.49;99.81
67868;SHT31;54672;46.096;14.470;2022-11-10T15:10:59;11.47;99.88
67868;SHT31;54672;46.096;14.470;2022-11-10T15:18:50;11.63;99.43
67868;SHT31;54672;46.096;14.470;2022-11-10T15:21:19;11.62;99.39
67868;SHT31;54672;46.096;14.470;2022-11-10T15:23:54;11.49;99.65
67868;SHT31;54672;46.096;14.470;2022-11-10T15:26:26;11.44;99.98
67868;SHT31;54672;46.096;14.470;2022-11-10T15:28:52;11.40;99.71
67868;SHT31;54672;46.096;14.470;2022-11-10T15:31:30;11.37;99.88
67868;SHT31;54672;46.096;14.470;2022-11-10T15:33:58;11.33;99.99
67868;SHT31;54672;46.096;14.470;2022-11-10T15:41:35;11.18;99.99
67868;SHT31;54672;46.096;14.470;2022-11-10T15:44:20;11.12;99.99
67868;SHT31;54672;46.096;14.470;2022-11-10T15:46:47;11.06;99.99
67868;SHT31;54672;46.096;14.470;2022-11-10T15:49:26;10.95;99.99
67868;SHT31;54672;46.096;14.470;2022-11-10T15:51:56;10.88;99.99
67868;SHT31;54672;46.096;14.470;2022-11-10T15:54:24;10.79;99.99
67868;SHT31;54672;46.096;14.470;2022-11-10T15:56:51;10.71;99.99
67868;SHT31;54672;46.096;14.470;2022-11-10T15:59:16;10.69;99.99
67868;SHT31;54672;46.096;14.470;2022-11-10T16:01:43;10.61;99.99
67868;SHT31;54672;46.096;14.470;2022-11-10T16:04:10;10.55;99.99
67868;SHT31;54672;46.096;14.470;2022-11-10T16:06:36;10.50;99.99
67868;SHT31;54672;46.096;14.470;2022-11-10T16:09:02;10.44;99.99
67868;SHT31;54672;46.096;14.470;2022-11-10T16:11:29;10.36;99.99
67868;SHT31;54672;46.096;14.470;2022-11-10T16:13:55;10.29;99.99
67868;SHT31;54672;46.096;14.470;2022-11-10T16:16:21;10.20;99.99
67868;SHT31;54672;46.096;14.470;2022-11-10T16:18:49;10.17;99.99
67868;SHT31;54672;46.096;14.470;2022-11-10T16:21:22;10.24;99.99
67868;SHT31;54672;46.096;14.470;2022-11-10T16:23:48;10.17;99.99
67868;SHT31;54672;46.096;14.470;2022-11-10T16:26:19;10.12;99.99
67868;SHT31;54672;46.096;14.470;2022-11-10T16:28:46;10.07;99.99
67868;SHT31;54672;46.096;14.470;2022-11-10T16:31:16;10.03;99.99
67868;SHT31;54672;46.096;14.470;2022-11-10T16:33:43;9.99;99.99
67868;SHT31;54672;46.096;14.470;2022-11-10T16:38:41;10.05;99.99
67868;SHT31;54672;46.096;14.470;2022-11-10T16:41:11;9.99;99.99
67868;SHT31;54672;46.096;14.470;2022-11-10T16:43:36;9.92;99.99
67868;SHT31;54672;46.096;14.470;2022-11-10T16:46:04;9.81;99.99
67868;SHT31;54672;46.096;14.470;2022-11-10T16:48:31;9.75;99.99
67868;SHT31;54672;46.096;14.470;2022-11-10T16:50:59;9.71;99.99
67868;SHT31;54672;46.096;14.470;2022-11-10T16:53:30;9.62;99.99
67868;SHT31;54672;46.096;14.470;2022-11-10T16:55:56;9.56;99.99
67868;SHT31;54672;46.096;14.470;2022-11-10T16:58:25;9.54;99.99
67868;SHT31;54672;46.096;14.470;2022-11-10T17:00:53;9.52;99.99
67868;SHT31;54672;46.096;14.470;2022-11-10T17:03:26;9.55;99.99
67868;SHT31;54672;46.096;14.470;2022-11-10T17:05:53;9.71;99.99
67868;SHT31;54672;46.096;14.470;2022-11-10T17:08:21;9.76;99.99
67868;SHT31;54672;46.096;14.470;2022-11-10T17:10:51;9.72;99.99
67868;SHT31;54672;46.096;14.470;2022-11-10T17:13:17;9.82;99.99
67868;SHT31;54672;46.096;14.470;2022-11-10T17:15:44;9.82;99.99
67868;SHT31;54672;46.096;14.470;2022-11-10T17:18:15;9.87;99.99